createdAt,value
2022-09-09T00:00:16.918Z,100.00
2022-09-09T00:03:15.920Z,100.00
2022-09-09T00:06:12.283Z,100.00
2022-09-09T00:09:09.524Z,100.00
2022-09-09T00:11:57.824Z,100.00
2022-09-09T00:14:46.557Z,100.00
2022-09-09T00:17:42.936Z,100.00
2022-09-09T00:20:18.044Z,100.00
2022-09-09T00:23:13.985Z,100.00
2022-09-09T00:26:13.230Z,100.00
2022-09-09T00:29:09.533Z,100.00
2022-09-09T00:31:38.303Z,100.00
2022-09-09T00:34:20.158Z,100.00
2022-09-09T00:36:52.147Z,100.00
2022-09-09T00:39:33.603Z,100.00
2022-09-09T00:42:21.310Z,100.00
2022-09-09T00:45:36.546Z,100.00
2022-09-09T00:48:12.890Z,100.00
2022-09-09T00:50:59.414Z,100.00
2022-09-09T00:53:35.164Z,100.00
2022-09-09T00:56:17.493Z,100.00
2022-09-09T00:58:57.197Z,100.00
2022-09-09T01:01:24.339Z,100.00
2022-09-09T01:03:56.862Z,100.00
2022-09-09T01:06:32.395Z,100.00
2022-09-09T01:09:46.990Z,100.00
2022-09-09T01:12:30.266Z,100.00
2022-09-09T01:15:25.711Z,100.00
2022-09-09T01:18:04.786Z,100.00
2022-09-09T01:20:58.463Z,100.00
2022-09-09T01:24:03.114Z,100.00
2022-09-09T01:26:45.006Z,100.00
2022-09-09T01:29:24.326Z,100.00
2022-09-09T01:32:23.562Z,100.00
2022-09-09T01:34:52.602Z,100.00
2022-09-09T01:37:20.668Z,100.00
2022-09-09T01:39:48.326Z,100.00
2022-09-09T01:42:18.620Z,100.00
2022-09-09T01:44:46.445Z,100.00
2022-09-09T01:47:13.845Z,100.00
2022-09-09T01:50:12.700Z,100.00
2022-09-09T01:52:39.899Z,100.00
2022-09-09T01:55:11.583Z,100.00
2022-09-09T01:57:53.828Z,100.00
2022-09-09T02:00:21.451Z,100.00
2022-09-09T02:03:26.738Z,100.00
2022-09-09T02:06:27.883Z,100.00
2022-09-09T02:09:04.826Z,100.00
2022-09-09T02:11:34.371Z,100.00
2022-09-09T02:14:13.927Z,100.00
2022-09-09T02:16:53.773Z,100.00
2022-09-09T02:19:39.161Z,100.00
2022-09-09T02:22:23.366Z,100.00
2022-09-09T02:24:53.182Z,100.00
2022-09-09T02:27:24.904Z,100.00
2022-09-09T02:29:54.479Z,100.00
2022-09-09T02:32:36.773Z,100.00
2022-09-09T02:35:21.436Z,100.00
2022-09-09T02:37:50.825Z,100.00
2022-09-09T02:40:18.268Z,100.00
2022-09-09T02:42:56.477Z,100.00
2022-09-09T02:45:37.008Z,100.00
2022-09-09T02:48:23.911Z,100.00
2022-09-09T02:51:13.459Z,100.00
2022-09-09T02:54:03.265Z,100.00
2022-09-09T02:56:39.888Z,100.00
2022-09-09T02:59:07.460Z,100.00
2022-09-09T03:01:36.755Z,100.00
2022-09-09T03:04:06.406Z,100.00
2022-09-09T03:06:33.825Z,100.00
2022-09-09T03:09:11.442Z,100.00
2022-09-09T03:11:39.511Z,100.00
2022-09-09T03:14:07.467Z,100.00
2022-09-09T03:16:35.899Z,100.00
2022-09-09T03:19:03.096Z,100.00
2022-09-09T03:21:30.785Z,100.00
2022-09-09T03:23:58.282Z,100.00
2022-09-09T03:26:25.569Z,100.00
2022-09-09T03:28:53.204Z,100.00
2022-09-09T03:31:23.280Z,100.00
2022-09-09T03:33:51.178Z,100.00
2022-09-09T03:36:19.931Z,100.00
2022-09-09T03:38:46.982Z,100.00
2022-09-09T03:41:14.068Z,100.00
2022-09-09T03:43:42.102Z,100.00
2022-09-09T03:46:09.207Z,100.00
2022-09-09T03:48:36.383Z,100.00
2022-09-09T03:51:05.322Z,100.00
2022-09-09T03:53:34.319Z,100.00
2022-09-09T03:56:03.298Z,100.00
2022-09-09T03:58:31.233Z,100.00
2022-09-09T04:01:14.837Z,100.00
2022-09-09T04:03:43.913Z,100.00
2022-09-09T04:06:14.397Z,100.00
2022-09-09T04:08:43.299Z,100.00
2022-09-09T04:11:10.845Z,100.00
2022-09-09T04:13:40.337Z,100.00
2022-09-09T04:16:12.668Z,100.00
2022-09-09T04:18:41.575Z,100.00
2022-09-09T04:21:11.184Z,100.00
2022-09-09T04:23:38.193Z,100.00
2022-09-09T04:26:07.228Z,100.00
2022-09-09T04:28:37.496Z,100.00
2022-09-09T04:31:21.373Z,100.00
2022-09-09T04:33:50.974Z,100.00
2022-09-09T04:36:22.143Z,100.00
2022-09-09T04:38:51.042Z,100.00
2022-09-09T04:41:18.331Z,100.00
2022-09-09T04:43:48.196Z,100.00
2022-09-09T04:46:18.220Z,100.00
2022-09-09T04:48:45.562Z,100.00
2022-09-09T04:51:14.884Z,100.00
2022-09-09T04:53:43.240Z,100.00
2022-09-09T04:56:17.591Z,100.00
2022-09-09T04:58:50.338Z,100.00
2022-09-09T05:01:21.069Z,100.00
2022-09-09T05:03:49.719Z,100.00
2022-09-09T05:06:22.818Z,100.00
2022-09-09T05:08:53.881Z,100.00
2022-09-09T05:11:27.953Z,100.00
2022-09-09T05:14:02.133Z,100.00
2022-09-09T05:16:31.222Z,100.00
2022-09-09T05:19:00.073Z,100.00
2022-09-09T05:21:34.494Z,100.00
2022-09-09T05:24:01.694Z,100.00
2022-09-09T05:26:30.360Z,100.00
2022-09-09T05:29:00.047Z,100.00
2022-09-09T05:31:29.315Z,100.00
2022-09-09T05:33:56.380Z,100.00
2022-09-09T05:36:24.480Z,100.00
2022-09-09T05:38:55.704Z,100.00
2022-09-09T05:41:24.177Z,100.00
2022-09-09T05:43:53.727Z,100.00
2022-09-09T05:46:24.950Z,100.00
2022-09-09T05:48:54.536Z,100.00
2022-09-09T05:51:31.040Z,100.00
2022-09-09T05:53:59.895Z,100.00
2022-09-09T05:56:31.091Z,100.00
2022-09-09T05:59:01.210Z,100.00
2022-09-09T06:01:35.312Z,100.00
2022-09-09T06:04:04.787Z,100.00
2022-09-09T06:06:37.502Z,100.00
2022-09-09T06:09:11.608Z,100.00
2022-09-09T06:11:42.063Z,100.00
2022-09-09T06:14:10.415Z,100.00
2022-09-09T06:16:39.125Z,100.00
2022-09-09T06:19:13.783Z,100.00
2022-09-09T06:21:41.855Z,100.00
2022-09-09T06:24:09.892Z,100.00
2022-09-09T06:26:42.865Z,100.00
2022-09-09T06:29:13.446Z,100.00
2022-09-09T06:31:42.426Z,100.00
2022-09-09T06:34:19.386Z,100.00
2022-09-09T06:36:50.449Z,100.00
2022-09-09T06:39:17.514Z,100.00
2022-09-09T06:41:45.573Z,100.00
2022-09-09T06:44:41.531Z,100.00
2022-09-09T06:47:13.057Z,100.00
2022-09-09T06:49:43.099Z,100.00
2022-09-09T06:52:12.944Z,100.00
2022-09-09T06:54:39.986Z,100.00
2022-09-09T06:57:33.730Z,100.00
2022-09-09T06:59:55.747Z,100.00
2022-09-09T07:02:23.671Z,100.00
2022-09-09T07:04:52.633Z,100.00
2022-09-09T07:07:19.955Z,100.00
2022-09-09T07:09:47.156Z,100.00
2022-09-09T07:12:15.116Z,100.00
2022-09-09T07:14:49.337Z,100.00
2022-09-09T07:17:16.385Z,100.00
2022-09-09T07:19:44.132Z,100.00
2022-09-09T07:22:11.687Z,100.00
2022-09-09T07:24:39.249Z,100.00
2022-09-09T07:27:07.400Z,100.00
2022-09-09T07:29:35.892Z,100.00
2022-09-09T07:32:04.741Z,100.00
2022-09-09T07:34:35.780Z,100.00
2022-09-09T07:37:03.351Z,100.00
2022-09-09T07:39:31.259Z,100.00
2022-09-09T07:41:59.054Z,100.00
2022-09-09T07:44:28.016Z,100.00
2022-09-09T07:47:02.001Z,100.00
2022-09-09T07:49:35.202Z,100.00
2022-09-09T07:52:04.454Z,100.00
2022-09-09T07:54:33.141Z,100.00
2022-09-09T07:57:01.511Z,100.00
2022-09-09T07:59:31.379Z,100.00
2022-09-09T08:01:59.371Z,100.00
2022-09-09T08:04:29.494Z,100.00
2022-09-09T08:07:00.758Z,100.00
2022-09-09T08:09:30.061Z,100.00
2022-09-09T08:12:09.777Z,100.00
2022-09-09T08:14:36.892Z,100.00
2022-09-09T08:17:04.371Z,100.00
2022-09-09T08:19:37.048Z,100.00
2022-09-09T08:22:09.479Z,100.00
2022-09-09T08:24:38.577Z,100.00
2022-09-09T08:27:05.776Z,100.00
2022-09-09T08:29:32.752Z,100.00
2022-09-09T08:32:00.887Z,100.00
2022-09-09T08:34:29.863Z,100.00
2022-09-09T08:36:59.064Z,100.00
2022-09-09T08:39:35.220Z,100.00
2022-09-09T08:42:26.087Z,100.00
2022-09-09T08:45:20.876Z,100.00
2022-09-09T08:48:15.109Z,100.00
2022-09-09T08:50:44.428Z,100.00
2022-09-09T08:53:31.469Z,100.00
2022-09-09T08:56:06.732Z,100.00
2022-09-09T08:59:03.792Z,100.00
2022-09-09T09:02:16.752Z,100.00
2022-09-09T09:05:00.429Z,100.00
2022-09-09T09:08:05.120Z,99.85
2022-09-09T09:10:49.995Z,100.00
2022-09-09T09:13:43.544Z,100.00
2022-09-09T09:16:24.262Z,100.00
2022-09-09T09:18:53.591Z,100.00
2022-09-09T09:21:35.509Z,100.00
2022-09-09T09:24:04.919Z,100.00
2022-09-09T09:26:36.219Z,100.00
2022-09-09T09:29:20.833Z,100.00
2022-09-09T09:31:56.428Z,100.00
2022-09-09T09:34:25.537Z,100.00
2022-09-09T09:37:02.742Z,100.00
2022-09-09T09:42:26.036Z,100.00
2022-09-09T09:44:56.566Z,99.77
2022-09-09T09:47:24.519Z,99.12
2022-09-09T09:50:21.500Z,93.75
2022-09-09T09:52:58.372Z,93.05
2022-09-09T09:55:27.030Z,94.49
2022-09-09T09:57:54.379Z,92.22
2022-09-09T10:00:26.764Z,90.62
2022-09-09T10:03:02.568Z,90.08
2022-09-09T10:05:36.967Z,90.44
2022-09-09T10:08:17.660Z,90.38
2022-09-09T10:11:08.259Z,90.48
2022-09-09T10:14:11.095Z,89.43
2022-09-09T10:17:10.128Z,90.63
2022-09-09T10:19:38.694Z,91.38
2022-09-09T10:22:17.454Z,92.45
2022-09-09T10:25:19.395Z,93.87
2022-09-09T10:28:24.543Z,94.54
2022-09-09T10:31:40.166Z,95.24
2022-09-09T10:35:06.208Z,95.52
2022-09-09T10:37:57.407Z,96.39
2022-09-09T10:40:43.349Z,95.88
2022-09-09T10:43:35.392Z,95.77
2022-09-09T10:46:43.404Z,93.82
2022-09-09T10:49:41.599Z,94.36
2022-09-09T10:52:19.253Z,94.55
2022-09-09T10:55:10.178Z,94.06
2022-09-09T10:57:42.944Z,94.53
2022-09-09T11:00:47.010Z,94.23
2022-09-09T11:03:34.559Z,92.00
2022-09-09T11:06:06.770Z,91.12
2022-09-09T11:08:40.352Z,90.04
2022-09-09T11:11:43.614Z,89.77
2022-09-09T11:14:21.697Z,90.06
2022-09-09T11:16:59.541Z,86.85
2022-09-09T11:19:35.229Z,84.58
2022-09-09T11:22:30.335Z,81.68
2022-09-09T11:25:17.219Z,82.02
2022-09-09T11:27:58.717Z,80.18
2022-09-09T11:30:57.175Z,77.51
2022-09-09T11:34:09.550Z,75.41
2022-09-09T11:36:52.936Z,74.40
2022-09-09T11:39:32.164Z,67.69
2022-09-09T11:42:28.773Z,69.51
2022-09-09T11:44:57.621Z,70.35
2022-09-09T11:47:31.589Z,70.53
2022-09-09T11:50:17.005Z,71.84
2022-09-09T11:52:49.571Z,69.62
2022-09-09T11:55:37.785Z,68.50
2022-09-09T11:58:26.525Z,69.37
2022-09-09T12:00:54.126Z,69.85
2022-09-09T12:03:46.933Z,69.39
2022-09-09T12:06:32.157Z,68.99
2022-09-09T12:09:24.364Z,69.66
2022-09-09T12:11:54.477Z,70.43
2022-09-09T12:14:36.662Z,68.52
2022-09-09T12:17:15.813Z,68.23
2022-09-09T12:19:43.310Z,67.75
2022-09-09T12:22:46.352Z,67.55
2022-09-09T12:25:23.038Z,68.07
2022-09-09T12:27:57.238Z,68.08
2022-09-09T12:30:30.946Z,66.22
2022-09-09T12:33:14.005Z,65.22
2022-09-09T12:35:45.249Z,65.90
2022-09-09T12:38:23.516Z,65.48
2022-09-09T12:40:58.779Z,65.51
2022-09-09T12:43:28.337Z,63.78
2022-09-09T12:46:18.904Z,63.86
2022-09-09T12:48:46.748Z,62.95
2022-09-09T12:51:29.658Z,62.99
2022-09-09T12:53:58.036Z,62.79
2022-09-09T12:56:28.828Z,63.06
2022-09-09T12:58:58.196Z,63.19
2022-09-09T13:01:32.232Z,62.42
2022-09-09T13:03:59.840Z,63.83
2022-09-09T13:06:30.528Z,64.35
2022-09-09T13:09:00.869Z,64.10
2022-09-09T13:11:34.907Z,63.26
2022-09-09T13:14:02.912Z,63.40
2022-09-09T13:16:40.444Z,64.68
2022-09-09T13:19:16.256Z,65.54
2022-09-09T13:21:44.036Z,65.69
2022-09-09T13:24:35.940Z,66.34
2022-09-09T13:27:31.363Z,67.93
2022-09-09T13:29:58.401Z,68.00
2022-09-09T13:35:02.610Z,68.57
2022-09-09T13:37:47.846Z,68.64
2022-09-09T13:40:22.605Z,68.60
2022-09-09T13:42:57.408Z,68.86
2022-09-09T13:45:29.850Z,69.90
2022-09-09T13:47:57.546Z,69.28
2022-09-09T13:50:27.894Z,69.92
2022-09-09T13:52:59.227Z,69.87
2022-09-09T13:55:30.802Z,67.93
2022-09-09T13:58:04.256Z,67.51
2022-09-09T14:00:34.160Z,66.67
2022-09-09T14:03:03.052Z,64.91
2022-09-09T14:05:32.993Z,64.48
2022-09-09T14:08:01.631Z,61.45
2022-09-09T14:10:28.859Z,62.00
2022-09-09T14:12:55.805Z,61.32
2022-09-09T14:15:23.009Z,62.27
2022-09-09T14:17:49.985Z,60.55
2022-09-09T14:20:18.586Z,58.47
2022-09-09T14:22:45.685Z,58.64
2022-09-09T14:25:14.431Z,59.18
2022-09-09T14:27:43.304Z,59.89
2022-09-09T14:30:11.126Z,59.67
2022-09-09T14:32:38.081Z,58.87
2022-09-09T14:35:05.352Z,57.88
2022-09-09T14:37:32.455Z,58.40
2022-09-09T14:39:59.529Z,58.79
2022-09-09T14:42:27.837Z,59.74
2022-09-09T14:44:54.790Z,61.63
2022-09-09T14:47:21.884Z,62.16
2022-09-09T14:49:50.500Z,62.57
2022-09-09T14:52:17.469Z,62.77
2022-09-09T14:54:44.373Z,63.27
2022-09-09T14:57:11.680Z,64.01
2022-09-09T14:59:38.577Z,64.38
2022-09-09T15:02:09.140Z,65.69
2022-09-09T15:04:36.477Z,65.11
2022-09-09T15:07:03.580Z,64.80
2022-09-09T15:09:31.012Z,65.61
2022-09-09T15:11:57.933Z,65.86
2022-09-09T15:14:26.037Z,66.11
2022-09-09T15:16:53.080Z,66.17
2022-09-09T15:19:20.117Z,65.86
2022-09-09T15:21:47.046Z,65.32
2022-09-09T15:24:14.689Z,64.48
2022-09-09T15:26:41.772Z,64.29
2022-09-09T15:29:09.720Z,63.78
2022-09-09T15:31:37.385Z,64.09
2022-09-09T15:34:08.869Z,64.27
2022-09-09T15:36:39.475Z,64.02
2022-09-09T15:39:13.422Z,65.18
2022-09-09T15:41:41.612Z,66.38
2022-09-09T15:44:11.971Z,67.89
2022-09-09T15:46:50.296Z,69.97
2022-09-09T15:49:26.960Z,72.34
2022-09-09T15:52:04.400Z,74.45
2022-09-09T15:54:37.649Z,76.14
2022-09-09T15:57:07.542Z,77.24
2022-09-09T15:59:36.866Z,77.97
2022-09-09T16:02:04.610Z,78.72
2022-09-09T16:04:32.371Z,78.62
2022-09-09T16:07:06.640Z,78.25
2022-09-09T16:09:36.028Z,78.38
2022-09-09T16:12:08.778Z,78.86
2022-09-09T16:14:36.765Z,78.60
2022-09-09T16:17:04.683Z,78.45
2022-09-09T16:19:32.034Z,79.00
2022-09-09T16:21:59.224Z,77.93
2022-09-09T16:24:27.619Z,76.73
2022-09-09T16:26:55.500Z,75.94
2022-09-09T16:29:24.113Z,75.44
2022-09-09T16:31:52.777Z,74.84
2022-09-09T16:34:20.788Z,74.60
2022-09-09T16:36:49.475Z,74.44
2022-09-09T16:39:21.450Z,74.17
2022-09-09T16:41:50.528Z,74.10
2022-09-09T16:44:19.758Z,74.42
2022-09-09T16:46:49.795Z,74.17
2022-09-09T16:49:17.364Z,74.13
2022-09-09T16:51:49.943Z,74.09
2022-09-09T16:54:19.316Z,73.76
2022-09-09T16:56:48.603Z,73.20
2022-09-09T16:59:22.015Z,73.48
2022-09-09T17:01:51.661Z,74.29
2022-09-09T17:04:26.352Z,75.11
2022-09-09T17:06:55.461Z,75.86
2022-09-09T17:09:23.776Z,77.51
2022-09-09T17:11:53.323Z,77.75
2022-09-09T17:14:22.744Z,78.29
2022-09-09T17:16:50.075Z,79.05
2022-09-09T17:19:17.272Z,79.09
2022-09-09T17:22:12.705Z,79.66
2022-09-09T17:24:31.441Z,80.08
2022-09-09T17:26:58.805Z,80.67
2022-09-09T17:29:26.383Z,81.71
2022-09-09T17:31:53.617Z,82.16
2022-09-09T17:34:20.666Z,82.74
2022-09-09T17:36:47.902Z,83.47
2022-09-09T17:39:14.932Z,83.89
2022-09-09T17:41:42.115Z,84.64
2022-09-09T17:44:10.623Z,84.61
2022-09-09T17:46:41.571Z,85.24
2022-09-09T17:49:15.716Z,85.88
2022-09-09T17:51:44.694Z,86.81
2022-09-09T17:54:15.180Z,87.47
2022-09-09T17:56:42.849Z,87.94
2022-09-09T17:59:13.271Z,88.32
2022-09-09T18:01:44.978Z,88.55
2022-09-09T18:04:14.699Z,89.11
2022-09-09T18:06:47.921Z,89.75
2022-09-09T18:09:25.635Z,89.91
2022-09-09T18:11:56.328Z,90.10
2022-09-09T18:14:31.294Z,90.98
2022-09-09T18:17:00.239Z,91.55
2022-09-09T18:19:30.780Z,91.88
2022-09-09T18:22:00.396Z,92.13
2022-09-09T18:24:30.052Z,91.59
2022-09-09T18:26:57.081Z,91.72
2022-09-09T18:29:25.495Z,91.95
2022-09-09T18:31:54.413Z,92.18
2022-09-09T18:34:22.767Z,93.02
2022-09-09T18:36:55.890Z,93.82
2022-09-09T18:39:27.591Z,94.41
2022-09-09T18:42:02.302Z,94.94
2022-09-09T18:44:33.928Z,94.77
2022-09-09T18:47:04.253Z,93.97
2022-09-09T18:49:31.403Z,93.56
2022-09-09T18:51:59.175Z,92.51
2022-09-09T18:54:34.089Z,92.16
2022-09-09T18:57:01.366Z,92.82
2022-09-09T18:59:29.049Z,93.74
2022-09-09T19:01:56.377Z,93.80
2022-09-09T19:04:25.287Z,94.29
2022-09-09T19:06:58.203Z,94.08
2022-09-09T19:09:32.335Z,94.30
2022-09-09T19:12:01.091Z,93.71
2022-09-09T19:14:28.901Z,94.23
2022-09-09T19:16:56.394Z,94.38
2022-09-09T19:19:31.907Z,94.12
2022-09-09T19:22:01.728Z,94.09
2022-09-09T19:24:31.823Z,93.98
2022-09-09T19:27:05.835Z,94.08
2022-09-09T19:29:36.564Z,94.24
2022-09-09T19:34:52.160Z,93.97
2022-09-09T19:37:19.872Z,93.49
2022-09-09T19:39:47.994Z,93.97
2022-09-09T19:42:15.205Z,94.26
2022-09-09T19:44:42.181Z,94.69
2022-09-09T19:47:09.269Z,95.49
2022-09-09T19:49:37.122Z,95.38
2022-09-09T19:52:04.728Z,95.90
2022-09-09T19:54:31.794Z,96.00
2022-09-09T19:57:00.136Z,96.35
2022-09-09T19:59:27.945Z,96.18
2022-09-09T20:01:56.578Z,96.95
2022-09-09T20:04:23.892Z,97.30
2022-09-09T20:06:52.081Z,98.04
2022-09-09T20:09:20.416Z,98.50
2022-09-09T20:11:49.520Z,99.29
2022-09-09T20:14:17.204Z,99.91
2022-09-09T20:16:45.613Z,100.00
2022-09-09T20:19:14.317Z,100.00
2022-09-09T20:21:47.588Z,100.00
2022-09-09T20:24:18.693Z,100.00
2022-09-09T20:26:48.246Z,100.00
2022-09-09T20:29:19.050Z,100.00
2022-09-09T20:31:46.832Z,100.00
2022-09-09T20:34:18.377Z,100.00
2022-09-09T20:36:46.056Z,100.00
2022-09-09T20:39:20.003Z,100.00
2022-09-09T20:41:48.056Z,100.00
2022-09-09T20:44:17.186Z,100.00
2022-09-09T20:46:50.403Z,100.00
2022-09-09T20:49:20.539Z,100.00
2022-09-09T20:51:49.685Z,100.00
2022-09-09T20:54:23.314Z,100.00
2022-09-09T20:56:51.865Z,100.00
2022-09-09T20:59:22.222Z,100.00
2022-09-09T21:01:50.086Z,100.00
2022-09-09T21:04:19.714Z,100.00
2022-09-09T21:06:49.223Z,100.00
2022-09-09T21:09:16.271Z,100.00
2022-09-09T21:11:43.445Z,100.00
2022-09-09T21:14:10.901Z,100.00
2022-09-09T21:16:38.052Z,100.00
2022-09-09T21:19:05.314Z,100.00
2022-09-09T21:21:32.566Z,100.00
2022-09-09T21:24:00.516Z,100.00
2022-09-09T21:26:28.375Z,100.00
2022-09-09T21:28:55.892Z,100.00
2022-09-09T21:31:27.739Z,100.00
2022-09-09T21:33:57.138Z,100.00
2022-09-09T21:36:24.675Z,100.00
2022-09-09T21:38:51.667Z,100.00
2022-09-09T21:41:19.156Z,100.00
2022-09-09T21:43:50.996Z,100.00
2022-09-09T21:46:18.409Z,100.00
2022-09-09T21:48:45.807Z,100.00
2022-09-09T21:51:17.577Z,100.00
2022-09-09T21:53:45.198Z,100.00
2022-09-09T21:56:18.510Z,100.00
2022-09-09T21:58:47.459Z,100.00
2022-09-09T22:01:18.073Z,100.00
2022-09-09T22:03:46.393Z,100.00
2022-09-09T22:06:16.485Z,100.00
2022-09-09T22:08:45.300Z,100.00
2022-09-09T22:11:16.581Z,100.00
2022-09-09T22:13:48.262Z,100.00
2022-09-09T22:16:19.113Z,100.00
2022-09-09T22:18:55.186Z,100.00
2022-09-09T22:21:22.815Z,100.00
2022-09-09T22:23:55.818Z,100.00
2022-09-09T22:26:24.535Z,100.00
2022-09-09T22:28:53.703Z,100.00
2022-09-09T22:31:22.829Z,100.00
2022-09-09T22:33:52.023Z,100.00
2022-09-09T22:36:20.363Z,100.00
2022-09-09T22:38:48.947Z,100.00
2022-09-09T22:41:17.156Z,100.00
2022-09-09T22:43:44.810Z,100.00
2022-09-09T22:46:11.987Z,100.00
2022-09-09T22:48:39.845Z,100.00
2022-09-09T22:51:11.074Z,100.00
2022-09-09T22:53:40.769Z,100.00
2022-09-09T22:56:13.510Z,100.00
2022-09-09T22:58:40.893Z,100.00
2022-09-09T23:01:15.358Z,100.00
2022-09-09T23:03:46.281Z,100.00
2022-09-09T23:06:22.667Z,100.00
2022-09-09T23:08:56.000Z,100.00
2022-09-09T23:11:29.129Z,100.00
2022-09-09T23:13:58.178Z,100.00
2022-09-09T23:16:29.730Z,100.00
2022-09-09T23:18:56.829Z,100.00
2022-09-09T23:21:26.293Z,100.00
2022-09-09T23:23:55.563Z,100.00
2022-09-09T23:26:24.832Z,100.00
2022-09-09T23:28:53.360Z,100.00
2022-09-09T23:31:22.886Z,100.00
2022-09-09T23:33:49.955Z,100.00
2022-09-09T23:36:19.857Z,100.00
2022-09-09T23:38:47.431Z,100.00
2022-09-09T23:41:21.307Z,100.00
2022-09-09T23:43:49.767Z,100.00
2022-09-09T23:46:20.253Z,100.00
2022-09-09T23:48:51.636Z,100.00
2022-09-09T23:51:23.542Z,100.00
2022-09-09T23:53:53.438Z,100.00
2022-09-09T23:56:22.150Z,100.00
2022-09-09T23:58:50.712Z,100.00
